Time;durP1;ratioP1;P1;durP2;ratioP2;P2;SDS_P1;SDS_P2;PMS_P1;PMS_P2;Temp;Humidity;BMP_temperature;BMP_pressure;BME280_temperature;BME280_humidity;BME280_pressure;Samples;Min_cycle;Max_cycle;Signal;HPM_P1;HPM_P2
2023/09/20 00:02:08;;;;;;;6.25;2.53;;;;;;;16.06;94.35;100728.88;5020674;28;20025;-69
2023/09/20 00:04:35;;;;;;;5.55;2.50;;;;;;;16.04;94.42;100725.44;5021325;28;20483;-71
2023/09/20 00:07:02;;;;;;;5.18;2.88;;;;;;;16.00;95.07;100732.00;5021420;28;20034;-69
2023/09/20 00:09:30;;;;;;;6.47;2.55;;;;;;;15.96;95.29;100720.66;5021197;28;20095;-70
2023/09/20 00:11:56;;;;;;;7.22;3.10;;;;;;;15.90;95.64;100727.34;5021519;28;20474;-71
2023/09/20 00:14:21;;;;;;;5.30;2.80;;;;;;;15.90;96.15;100724.66;5021689;28;20448;-68
2023/09/20 00:16:47;;;;;;;7.68;3.17;;;;;;;15.87;96.21;100732.09;5021408;28;20499;-69
2023/09/20 00:19:12;;;;;;;5.32;2.65;;;;;;;15.80;96.63;100723.66;5023920;28;20244;-69
2023/09/20 00:21:37;;;;;;;5.93;2.53;;;;;;;15.77;97.07;100734.59;5025632;28;20040;-69
2023/09/20 00:24:04;;;;;;;6.13;2.72;;;;;;;15.75;97.20;100736.53;5004571;28;20046;-69
2023/09/20 00:26:31;;;;;;;5.13;2.65;;;;;;;15.76;97.68;100726.66;5018629;28;20029;-69
2023/09/20 00:29:03;;;;;;;5.38;2.65;;;;;;;15.77;97.27;100725.69;5025740;28;20029;-69
2023/09/20 00:31:29;;;;;;;6.28;2.72;;;;;;;15.71;97.92;100728.81;5024956;28;20025;-69
2023/09/20 00:33:56;;;;;;;4.63;2.80;;;;;;;15.64;98.54;100731.09;5025329;28;20395;-69
2023/09/20 00:36:21;;;;;;;6.40;2.72;;;;;;;15.58;98.79;100728.84;5025554;28;20033;-69
2023/09/20 00:38:52;;;;;;;6.18;2.58;;;;;;;15.59;98.88;100717.13;5026037;28;20025;-69
2023/09/20 00:41:18;;;;;;;6.93;2.80;;;;;;;15.58;99.26;100728.84;5025831;28;20036;-69
2023/09/20 00:43:44;;;;;;;4.50;2.67;;;;;;;15.55;99.40;100729.06;5026274;28;20126;-70
2023/09/20 00:46:11;;;;;;;5.63;2.60;;;;;;;15.49;100.00;100718.78;5024920;28;20232;-69
2023/09/20 00:48:38;;;;;;;7.30;2.92;;;;;;;15.45;100.00;100721.69;5025174;28;20467;-69
2023/09/20 00:51:06;;;;;;;6.22;2.63;;;;;;;15.45;100.00;100724.38;5025955;28;20029;-69
2023/09/20 00:53:32;;;;;;;7.40;3.00;;;;;;;15.44;100.00;100719.97;4994204;28;20029;-69
2023/09/20 00:55:58;;;;;;;6.95;3.00;;;;;;;15.38;100.00;100712.41;5025131;28;20030;-70
2023/09/20 00:58:24;;;;;;;5.82;2.90;;;;;;;15.39;100.00;100711.44;5025046;28;20038;-70
2023/09/20 01:00:54;;;;;;;7.45;3.25;;;;;;;15.37;100.00;100720.53;5024619;28;20038;-70
2023/09/20 01:03:19;;;;;;;5.00;2.75;;;;;;;15.35;100.00;100711.75;5024938;28;20040;-69
2023/09/20 01:05:48;;;;;;;7.38;2.80;;;;;;;15.32;100.00;100720.03;5025997;28;20025;-70
2023/09/20 01:08:17;;;;;;;4.93;3.25;;;;;;;15.27;100.00;100720.38;5022639;28;20473;-70
2023/09/20 01:10:43;;;;;;;8.52;3.25;;;;;;;15.24;100.00;100717.03;5020481;28;20036;-69
2023/09/20 01:13:11;;;;;;;4.75;2.88;;;;;;;15.19;100.00;100725.41;5025394;28;20021;-69
2023/09/20 01:15:37;;;;;;;6.13;3.00;;;;;;;15.21;100.00;100720.78;5024488;28;20488;-69
2023/09/20 01:18:04;;;;;;;6.05;2.92;;;;;;;15.19;100.00;100733.47;5025117;28;20017;-70
2023/09/20 01:20:33;;;;;;;6.13;2.50;;;;;;;15.21;100.00;100718.09;5025016;28;20171;-70
2023/09/20 01:22:59;;;;;;;6.40;2.88;;;;;;;15.19;100.00;100728.09;5007348;28;20134;-70
2023/09/20 01:25:30;;;;;;;6.90;2.67;;;;;;;15.19;100.00;100717.38;5024438;28;20053;-69
2023/09/20 01:27:58;;;;;;;6.10;2.53;;;;;;;15.16;100.00;100729.16;5024879;28;20030;-70
2023/09/20 01:30:25;;;;;;;10.25;3.13;;;;;;;15.12;100.00;100724.13;5023239;28;20021;-71
2023/09/20 01:33:00;;;;;;;7.80;3.13;;;;;;;15.15;100.00;100726.59;5024686;28;20025;-71
2023/09/20 01:35:28;;;;;;;8.05;2.65;;;;;;;15.17;100.00;100721.97;5007745;28;20025;-71
2023/09/20 01:37:55;;;;;;;5.07;2.70;;;;;;;15.27;100.00;100716.81;5012108;28;20093;-71
2023/09/20 01:40:25;;;;;;;6.00;3.00;;;;;;;15.33;100.00;100703.81;5023646;28;20065;-70
2023/09/20 01:42:52;;;;;;;5.97;2.90;;;;;;;15.38;100.00;100701.69;5023658;28;20026;-70
2023/09/20 01:45:19;;;;;;;10.02;3.33;;;;;;;15.38;100.00;100700.78;5023629;28;20021;-70
2023/09/20 01:47:49;;;;;;;6.47;2.63;;;;;;;15.42;100.00;100702.28;5023386;28;20109;-70
2023/09/20 01:50:25;;;;;;;5.68;2.75;;;;;;;15.41;100.00;100692.53;5023800;28;20048;-71
2023/09/20 01:52:51;;;;;;;7.90;3.42;;;;;;;15.41;100.00;100692.53;5023434;28;20040;-70
2023/09/20 01:55:18;;;;;;;6.40;2.80;;;;;;;15.47;100.00;100686.72;5023396;28;20052;-71
2023/09/20 01:57:45;;;;;;;5.47;2.83;;;;;;;15.53;100.00;100688.94;5023206;28;20068;-71
2023/09/20 02:00:21;;;;;;;4.85;3.05;;;;;;;15.58;100.00;100684.09;5023643;28;20052;-70
2023/09/20 02:02:48;;;;;;;6.20;2.97;;;;;;;15.66;100.00;100678.19;5023513;28;20258;-69
2023/09/20 02:05:17;;;;;;;6.43;3.72;;;;;;;15.71;100.00;100680.53;4988367;28;20602;-70
2023/09/20 02:07:45;;;;;;;6.88;2.67;;;;;;;15.77;100.00;100678.25;5016929;28;20055;-70
2023/09/20 02:10:10;;;;;;;6.65;2.80;;;;;;;15.81;100.00;100677.03;5023897;28;20167;-70
2023/09/20 02:12:36;;;;;;;8.25;2.90;;;;;;;15.86;100.00;100669.50;4988449;28;20235;-70
2023/09/20 02:15:07;;;;;;;5.07;2.83;;;;;;;15.91;100.00;100666.47;5014965;28;20037;-70
2023/09/20 02:17:36;;;;;;;7.03;3.03;;;;;;;15.99;100.00;100657.84;5023965;28;20153;-70
2023/09/20 02:20:08;;;;;;;4.75;2.50;;;;;;;16.00;100.00;100660.38;5023583;28;20328;-68
2023/09/20 02:22:36;;;;;;;4.90;2.83;;;;;;;16.02;100.00;100663.81;5011000;28;20136;-70
2023/09/20 02:25:03;;;;;;;7.50;2.72;;;;;;;16.08;100.00;100655.28;5005483;28;20038;-70
2023/09/20 02:27:30;;;;;;;5.65;2.90;;;;;;;16.02;100.00;100654.91;5003069;28;20030;-69
2023/09/20 02:29:56;;;;;;;7.25;2.92;;;;;;;16.05;100.00;100650.19;5003453;28;20022;-70
2023/09/20 02:32:21;;;;;;;6.90;2.70;;;;;;;16.04;100.00;100658.34;5003953;28;20361;-69
2023/09/20 02:34:51;;;;;;;6.90;2.72;;;;;;;16.05;100.00;100658.22;5003726;28;20030;-68
2023/09/20 02:37:18;;;;;;;8.88;3.28;;;;;;;15.96;100.00;100645.50;5004316;28;20028;-69
2023/09/20 02:39:45;;;;;;;7.07;2.80;;;;;;;15.96;100.00;100655.38;5003385;28;20025;-69
2023/09/20 02:42:10;;;;;;;7.25;2.92;;;;;;;15.95;100.00;100659.88;5002863;28;20150;-68
2023/09/20 02:44:36;;;;;;;7.97;3.10;;;;;;;15.93;100.00;100653.78;5003046;28;20029;-69
2023/09/20 02:47:01;;;;;;;6.60;2.97;;;;;;;15.92;100.00;100652.91;5003290;28;20037;-69
2023/09/20 02:49:26;;;;;;;7.57;3.30;;;;;;;15.88;100.00;100655.94;5003184;28;20457;-69
2023/09/20 02:51:52;;;;;;;6.93;2.80;;;;;;;15.88;100.00;100646.09;5003222;28;20544;-69
2023/09/20 02:54:18;;;;;;;6.07;3.03;;;;;;;15.84;100.00;100647.31;5003308;28;20032;-69
2023/09/20 02:56:44;;;;;;;8.18;3.40;;;;;;;15.77;100.00;100643.38;5002818;28;20060;-69
2023/09/20 02:59:10;;;;;;;8.18;3.65;;;;;;;15.72;100.00;100639.28;5002919;28;20420;-69
2023/09/20 03:01:35;;;;;;;5.40;2.97;;;;;;;15.64;100.00;100631.81;5002784;28;20029;-71
2023/09/20 03:04:01;;;;;;;5.32;3.28;;;;;;;15.58;100.00;100627.75;5003218;28;20029;-70
2023/09/20 03:06:29;;;;;;;5.18;2.97;;;;;;;15.51;100.00;100620.28;5002871;28;20029;-69
2023/09/20 03:08:54;;;;;;;4.72;2.60;;;;;;;15.47;100.00;100630.41;5003560;28;20026;-68
2023/09/20 03:11:21;;;;;;;7.82;3.55;;;;;;;15.40;100.00;100627.31;5003033;28;20037;-69
2023/09/20 03:13:47;;;;;;;6.65;3.28;;;;;;;15.37;100.00;100624.84;5003468;28;20053;-69
2023/09/20 03:16:19;;;;;;;5.97;3.08;;;;;;;15.34;100.00;100632.25;5002404;28;20111;-69
2023/09/20 03:18:50;;;;;;;6.53;2.85;;;;;;;15.35;100.00;100624.13;5003534;28;20053;-69
2023/09/20 03:21:15;;;;;;;10.63;3.38;;;;;;;15.31;100.00;100625.31;5004013;28;20026;-70
2023/09/20 03:23:42;;;;;;;7.57;3.45;;;;;;;15.32;100.00;100632.38;5005650;28;20115;-70
2023/09/20 03:26:08;;;;;;;9.98;3.50;;;;;;;15.30;100.00;100620.06;5022991;28;20788;-69
2023/09/20 03:28:35;;;;;;;5.40;3.15;;;;;;;15.28;100.00;100612.13;5022562;28;20155;-69
2023/09/20 03:31:06;;;;;;;7.15;3.47;;;;;;;15.28;100.00;100614.81;5022480;28;20025;-69
2023/09/20 03:33:32;;;;;;;6.28;3.33;;;;;;;15.23;100.00;100614.31;5022253;28;20093;-69
2023/09/20 03:36:09;;;;;;;5.80;3.20;;;;;;;15.19;100.00;100605.63;5022468;28;20260;-69
2023/09/20 03:38:35;;;;;;;6.07;3.80;;;;;;;15.14;100.00;100604.25;5022313;28;20075;-69
2023/09/20 03:41:01;;;;;;;5.55;3.15;;;;;;;15.10;100.00;100602.78;5022185;28;20029;-70
2023/09/20 03:43:27;;;;;;;5.63;3.10;;;;;;;15.10;100.00;100602.78;5022585;28;20018;-70
2023/09/20 03:45:54;;;;;;;9.43;3.60;;;;;;;15.06;100.00;100596.78;5022686;28;20561;-69
2023/09/20 03:48:20;;;;;;;6.70;3.35;;;;;;;15.03;100.00;100605.03;5022603;28;20392;-70
2023/09/20 03:50:45;;;;;;;8.18;3.47;;;;;;;15.00;100.00;100620.47;5022482;28;20460;-70
2023/09/20 03:53:11;;;;;;;9.07;3.90;;;;;;;14.99;100.00;100613.41;5022301;28;20064;-70
2023/09/20 03:55:37;;;;;;;3.97;2.80;;;;;;;15.01;100.00;100615.03;5025546;28;20021;-70
2023/09/20 03:58:03;;;;;;;5.30;2.83;;;;;;;14.97;100.00;100610.00;5025741;28;20168;-69
2023/09/20 04:00:31;;;;;;;6.47;2.83;;;;;;;14.94;100.00;100611.06;5025618;28;20022;-71
2023/09/20 04:02:57;;;;;;;6.57;3.13;;;;;;;14.94;100.00;100614.59;5026483;28;20032;-69
2023/09/20 04:05:24;;;;;;;7.40;3.10;;;;;;;14.96;100.00;100598.41;5025602;28;20022;-70
2023/09/20 04:07:49;;;;;;;5.95;3.60;;;;;;;15.02;100.00;100602.47;5025249;28;20027;-70
2023/09/20 04:10:16;;;;;;;5.65;3.25;;;;;;;14.99;100.00;100603.56;5026241;28;20290;-68
2023/09/20 04:12:41;;;;;;;7.15;3.30;;;;;;;14.95;100.00;100597.56;5025094;28;20029;-70
2023/09/20 04:15:08;;;;;;;7.18;4.10;;;;;;;14.96;100.00;100582.31;5025288;28;20043;-70
2023/09/20 04:17:35;;;;;;;6.13;3.10;;;;;;;14.93;100.00;100591.47;5025404;28;20103;-70
2023/09/20 04:20:00;;;;;;;6.72;3.15;;;;;;;14.92;100.00;100575.47;5025741;28;20446;-70
2023/09/20 04:22:26;;;;;;;7.97;3.40;;;;;;;14.93;100.00;100587.94;5024904;28;20017;-71
2023/09/20 04:24:52;;;;;;;6.10;3.22;;;;;;;14.90;100.00;100589.00;4991907;28;20050;-72
2023/09/20 04:27:17;;;;;;;7.00;3.40;;;;;;;14.89;100.00;100583.75;5005676;28;20041;-70
2023/09/20 04:29:42;;;;;;;6.55;2.80;;;;;;;14.89;100.00;100589.97;5005918;28;20141;-70
2023/09/20 04:32:08;;;;;;;5.72;3.00;;;;;;;14.90;100.00;100580.97;5005940;28;20021;-69
2023/09/20 04:34:33;;;;;;;6.07;3.30;;;;;;;14.87;100.00;100577.66;5005703;28;20037;-73
2023/09/20 04:37:01;;;;;;;5.88;3.30;;;;;;;14.85;100.00;100577.78;5005318;28;20480;-70
2023/09/20 04:39:27;;;;;;;5.80;3.25;;;;;;;14.83;100.00;100576.16;5005340;28;20026;-70
2023/09/20 04:41:53;;;;;;;6.03;3.10;;;;;;;14.78;100.00;100568.47;5005571;28;20026;-70
2023/09/20 04:44:21;;;;;;;6.28;3.28;;;;;;;14.80;100.00;100566.53;5005474;28;20153;-70
2023/09/20 04:46:47;;;;;;;8.80;3.63;;;;;;;14.80;100.00;100563.00;5005507;28;20113;-70
2023/09/20 04:49:14;;;;;;;9.48;3.75;;;;;;;14.77;100.00;100566.75;5005170;28;20113;-70
2023/09/20 04:51:40;;;;;;;4.57;3.33;;;;;;;14.72;100.00;100563.56;5005115;28;20038;-70
2023/09/20 04:54:07;;;;;;;6.28;3.67;;;;;;;14.75;100.00;100563.31;5005013;28;20053;-71
2023/09/20 04:56:33;;;;;;;8.27;3.20;;;;;;;14.81;100.00;100556.69;5003944;28;20026;-69
2023/09/20 04:58:58;;;;;;;5.40;2.90;;;;;;;14.83;100.00;100557.41;5005158;28;20017;-70
2023/09/20 05:01:24;;;;;;;5.55;2.95;;;;;;;14.92;100.00;100562.09;5004916;28;20026;-70
2023/09/20 05:03:50;;;;;;;5.07;3.25;;;;;;;14.86;100.00;100555.34;5005340;28;20045;-69
2023/09/20 05:06:20;;;;;;;5.47;3.05;;;;;;;14.84;100.00;100561.78;5004055;28;20037;-69
2023/09/20 05:08:46;;;;;;;4.72;2.78;;;;;;;14.83;100.00;100555.56;5005232;28;20034;-70
2023/09/20 05:11:13;;;;;;;7.10;3.30;;;;;;;14.84;100.00;100549.28;5004776;28;20417;-70
2023/09/20 05:13:39;;;;;;;5.95;3.08;;;;;;;14.82;100.00;100555.69;5005021;28;20100;-70
2023/09/20 05:16:05;;;;;;;5.82;3.60;;;;;;;14.78;100.00;100536.31;5004042;28;20076;-71
2023/09/20 05:18:30;;;;;;;6.25;3.53;;;;;;;14.78;100.00;100551.53;5003981;28;20026;-70
2023/09/20 05:20:56;;;;;;;5.07;3.30;;;;;;;14.80;100.00;100561.19;5003556;28;20022;-70
2023/09/20 05:23:22;;;;;;;6.55;3.10;;;;;;;14.83;100.00;100558.25;4989837;28;20049;-69
2023/09/20 05:25:48;;;;;;;6.55;3.58;;;;;;;14.84;100.00;100559.09;5024074;28;20025;-70
2023/09/20 05:28:15;;;;;;;6.07;3.28;;;;;;;14.86;100.00;100554.50;5023506;28;20035;-69
2023/09/20 05:30:44;;;;;;;5.03;3.17;;;;;;;14.86;100.00;100551.81;5024019;28;20583;-69
2023/09/20 05:33:11;;;;;;;7.13;3.42;;;;;;;14.84;100.00;100551.94;5024262;28;20045;-68
2023/09/20 05:35:39;;;;;;;5.65;3.05;;;;;;;14.83;100.00;100536.81;5023654;28;20112;-69
2023/09/20 05:38:05;;;;;;;6.40;3.08;;;;;;;14.90;100.00;100542.59;5024070;28;20025;-69
2023/09/20 05:40:30;;;;;;;5.50;3.10;;;;;;;14.90;100.00;100556.00;5024068;28;20760;-70
2023/09/20 05:42:56;;;;;;;7.82;3.08;;;;;;;14.91;100.00;100553.19;5024262;28;20037;-70
2023/09/20 05:45:23;;;;;;;6.88;3.00;;;;;;;14.90;100.00;100550.63;4997369;28;20056;-70
2023/09/20 05:47:49;;;;;;;6.50;3.47;;;;;;;14.88;100.00;100548.06;5020519;28;20087;-70
2023/09/20 05:50:15;;;;;;;7.93;3.42;;;;;;;14.90;100.00;100546.13;5023383;28;20029;-70
2023/09/20 05:52:42;;;;;;;6.88;2.83;;;;;;;14.95;100.00;100549.31;5023608;28;20036;-69
2023/09/20 05:55:14;;;;;;;6.40;3.15;;;;;;;14.96;100.00;100555.53;5009460;28;20025;-69
2023/09/20 05:57:43;;;;;;;8.05;3.25;;;;;;;14.97;100.00;100557.25;5024329;28;20026;-69
2023/09/20 06:00:17;;;;;;;5.25;2.83;;;;;;;14.95;100.00;100543.97;5023762;28;20044;-69
2023/09/20 06:02:43;;;;;;;7.40;3.30;;;;;;;14.96;100.00;100544.81;5024056;28;20578;-70
2023/09/20 06:05:11;;;;;;;6.18;2.50;;;;;;;15.01;100.00;100552.53;5023786;28;20480;-70
2023/09/20 06:07:38;;;;;;;7.90;3.30;;;;;;;15.02;100.00;100552.41;5023940;28;20025;-70
2023/09/20 06:10:05;;;;;;;5.70;3.33;;;;;;;15.04;100.00;100554.97;5023469;28;20080;-70
2023/09/20 06:12:31;;;;;;;5.15;3.22;;;;;;;15.07;100.00;100555.59;5023769;28;20036;-70
2023/09/20 06:14:57;;;;;;;5.20;2.78;;;;;;;15.17;100.00;100563.81;5023478;28;20163;-69
2023/09/20 06:17:22;;;;;;;4.82;2.53;;;;;;;15.20;100.00;100553.72;5023330;28;20553;-71
2023/09/20 06:19:48;;;;;;;7.68;3.45;;;;;;;15.24;100.00;100561.53;5012708;28;20472;-69
2023/09/20 06:22:14;;;;;;;5.68;2.90;;;;;;;15.34;100.00;100552.69;5020976;28;20043;-69
2023/09/20 06:24:44;;;;;;;5.45;2.85;;;;;;;15.48;100.00;100556.16;5023084;28;20121;-69
2023/09/20 06:27:09;;;;;;;5.13;2.72;;;;;;;15.52;100.00;100545.06;5022951;28;20045;-69
2023/09/20 06:29:35;;;;;;;5.85;3.22;;;;;;;15.67;100.00;100545.75;5023523;28;20519;-70
2023/09/20 06:32:03;;;;;;;5.20;2.65;;;;;;;15.79;100.00;100550.16;5022943;28;20025;-69
2023/09/20 06:34:29;;;;;;;5.95;2.88;;;;;;;15.98;100.00;100538.03;5022458;28;20036;-69
2023/09/20 06:36:54;;;;;;;4.70;3.05;;;;;;;16.13;100.00;100555.59;5022780;28;20029;-69
2023/09/20 06:39:20;;;;;;;4.78;2.53;;;;;;;16.33;100.00;100557.56;5023428;28;20573;-69
2023/09/20 06:41:45;;;;;;;7.18;2.80;;;;;;;16.50;100.00;100556.22;5023193;28;20029;-70
2023/09/20 06:44:12;;;;;;;4.88;2.70;;;;;;;16.63;100.00;100546.19;5023225;28;20249;-69
2023/09/20 06:46:38;;;;;;;5.80;2.72;;;;;;;16.65;100.00;100551.44;5022771;28;20270;-71
2023/09/20 06:49:04;;;;;;;4.47;2.63;;;;;;;16.66;100.00;100545.09;5022672;28;20036;-70
2023/09/20 06:51:30;;;;;;;4.88;2.47;;;;;;;16.70;100.00;100549.22;5022993;28;20110;-70
2023/09/20 06:53:58;;;;;;;4.45;2.53;;;;;;;16.85;100.00;100549.88;5022929;28;20029;-70
2023/09/20 06:56:25;;;;;;;4.93;2.67;;;;;;;17.09;100.00;100546.97;5023363;28;20021;-70
2023/09/20 06:58:55;;;;;;;6.68;2.90;;;;;;;17.36;100.00;100547.38;5023306;28;20025;-70
2023/09/20 07:01:20;;;;;;;6.55;2.75;;;;;;;17.71;100.00;100551.59;5023912;28;20083;-70
2023/09/20 07:03:46;;;;;;;3.22;2.28;;;;;;;17.94;99.28;100548.81;5001256;28;20040;-70
2023/09/20 07:06:12;;;;;;;6.75;2.50;;;;;;;18.03;96.98;100553.41;5016533;28;20033;-70
2023/09/20 07:08:37;;;;;;;3.75;2.20;;;;;;;17.97;97.07;100537.75;5022959;28;20022;-71
2023/09/20 07:11:04;;;;;;;3.78;2.60;;;;;;;17.95;97.51;100550.50;5022661;28;20095;-70
2023/09/20 07:13:32;;;;;;;5.32;2.70;;;;;;;18.00;97.01;100542.88;5022995;28;20026;-70
2023/09/20 07:15:59;;;;;;;5.10;2.50;;;;;;;18.07;95.72;100552.16;5022681;28;20033;-70
2023/09/20 07:18:25;;;;;;;5.38;2.75;;;;;;;18.01;96.23;100547.28;5022866;28;20022;-70
2023/09/20 07:20:54;;;;;;;5.50;2.65;;;;;;;17.84;96.63;100536.13;5003207;28;20526;-70
2023/09/20 07:23:21;;;;;;;6.05;2.35;;;;;;;17.82;97.78;100538.09;5016261;28;20049;-70
2023/09/20 07:25:49;;;;;;;5.50;2.78;;;;;;;17.78;97.38;100522.34;4985750;28;20076;-70
2023/09/20 07:28:16;;;;;;;3.45;2.30;;;;;;;17.83;97.26;100536.25;4998456;28;20033;-70
2023/09/20 07:30:45;;;;;;;4.70;2.78;;;;;;;18.13;96.45;100521.97;5026777;28;20377;-70
2023/09/20 07:33:11;;;;;;;3.92;2.60;;;;;;;18.43;93.95;100531.88;4995878;28;20049;-71
2023/09/20 07:35:46;;;;;;;3.08;2.40;;;;;;;18.55;93.20;100525.41;5027149;28;20063;-70
2023/09/20 07:38:17;;;;;;;4.60;2.63;;;;;;;18.71;92.92;100533.00;5027382;28;20777;-70
2023/09/20 07:40:44;;;;;;;4.93;2.70;;;;;;;18.69;92.10;100531.41;5027205;28;20064;-70
2023/09/20 07:43:10;;;;;;;8.07;2.60;;;;;;;18.67;91.63;100539.63;5009390;28;20476;-71
2023/09/20 07:45:39;;;;;;;6.57;2.35;;;;;;;18.51;92.47;100550.91;5026834;28;20103;-70
2023/09/20 07:48:12;;;;;;;4.88;2.70;;;;;;;18.69;91.21;100556.53;5026873;28;20525;-71
2023/09/20 07:50:42;;;;;;;4.28;2.30;;;;;;;18.61;91.51;100546.44;5027071;28;20390;-70
2023/09/20 07:53:14;;;;;;;4.30;2.53;;;;;;;18.46;91.65;100534.31;5027015;28;20030;-70
2023/09/20 07:55:45;;;;;;;5.57;2.67;;;;;;;18.51;92.09;100542.84;5026604;28;20396;-70
2023/09/20 07:58:14;;;;;;;5.07;2.72;;;;;;;18.73;92.04;100549.03;5027255;28;20025;-72
2023/09/20 08:00:44;;;;;;;6.72;2.58;;;;;;;18.73;90.60;100539.13;5025689;28;20578;-69
2023/09/20 08:03:12;;;;;;;4.40;2.75;;;;;;;18.75;90.42;100534.44;5026137;28;20025;-70
2023/09/20 08:05:39;;;;;;;6.05;2.50;;;;;;;18.99;89.30;100536.75;5026309;28;20026;-71
2023/09/20 08:08:13;;;;;;;6.72;2.55;;;;;;;19.08;88.96;100541.31;5026374;28;20022;-70
2023/09/20 08:10:38;;;;;;;5.47;2.20;;;;;;;19.06;88.28;100550.53;5025751;28;20056;-70
2023/09/20 08:13:05;;;;;;;4.75;2.90;;;;;;;19.17;88.04;100550.41;5025885;28;20111;-71
2023/09/20 08:15:36;;;;;;;5.15;2.47;;;;;;;19.36;87.69;100547.72;5024914;28;20021;-70
2023/09/20 08:20:46;;;;;;;4.95;2.70;;;;;;;19.85;84.69;100543.16;5025337;28;20486;-70
2023/09/20 09:01:36;;;;;;;5.38;2.80;;;;;;;23.11;69.02;100552.59;5025240;28;20121;-72
2023/09/20 09:04:03;;;;;;;3.67;2.00;;;;;;;23.34;66.22;100553.66;5024788;28;20104;-71
2023/09/20 09:06:30;;;;;;;5.40;2.38;;;;;;;22.78;68.75;100560.63;5025234;28;20079;-72
2023/09/20 09:08:55;;;;;;;3.05;1.95;;;;;;;22.23;70.46;100552.88;5014635;28;20037;-71
2023/09/20 09:11:23;;;;;;;4.75;2.20;;;;;;;21.82;72.01;100562.56;5025460;28;20474;-70
2023/09/20 09:13:49;;;;;;;3.45;2.30;;;;;;;21.34;73.18;100567.41;5024497;28;20025;-72
2023/09/20 09:16:15;;;;;;;6.43;2.50;;;;;;;21.02;74.73;100567.03;5015327;28;20025;-70
2023/09/20 09:18:41;;;;;;;7.13;2.30;;;;;;;20.79;76.14;100556.63;5018648;28;20388;-71
2023/09/20 09:21:07;;;;;;;4.82;2.20;;;;;;;20.78;78.12;100563.06;5024600;28;20057;-71
2023/09/20 09:23:35;;;;;;;5.90;2.28;;;;;;;20.83;77.34;100552.63;5024113;28;20025;-71
2023/09/20 09:26:01;;;;;;;4.45;1.98;;;;;;;20.71;78.32;100548.44;5024839;28;20033;-71
2023/09/20 09:28:26;;;;;;;3.90;2.30;;;;;;;20.68;78.64;100550.56;5023708;28;20029;-71
2023/09/20 09:30:54;;;;;;;4.05;2.55;;;;;;;20.92;78.13;100550.03;5025213;28;20021;-70
2023/09/20 09:33:20;;;;;;;3.97;2.00;;;;;;;21.19;76.27;100543.69;5024726;28;20491;-71
2023/09/20 09:35:48;;;;;;;3.78;2.00;;;;;;;21.52;74.66;100553.00;5024593;28;20032;-71
2023/09/20 09:38:20;;;;;;;4.07;2.15;;;;;;;21.58;75.68;100549.69;5024213;28;20097;-69
2023/09/20 09:40:53;;;;;;;4.38;1.95;;;;;;;21.59;74.26;100545.97;5024537;28;20476;-71
2023/09/20 09:43:20;;;;;;;3.97;2.20;;;;;;;21.54;75.51;100535.59;5024736;28;20112;-70
2023/09/20 09:45:49;;;;;;;4.32;2.10;;;;;;;21.64;74.13;100535.50;5024224;28;20057;-71
2023/09/20 09:48:16;;;;;;;4.38;2.00;;;;;;;21.77;72.91;100533.22;5024087;28;20036;-71
2023/09/20 09:50:45;;;;;;;2.75;1.90;;;;;;;21.84;72.23;100531.59;5023833;28;20480;-70
2023/09/20 09:53:13;;;;;;;3.42;1.98;;;;;;;21.97;72.31;100527.63;5023920;28;20562;-70
2023/09/20 09:55:40;;;;;;;4.10;2.15;;;;;;;22.52;70.78;100530.81;5023165;28;20021;-69
2023/09/20 09:58:08;;;;;;;3.95;1.85;;;;;;;22.53;69.65;100508.16;5024306;28;20028;-71
2023/09/20 10:00:38;;;;;;;3.65;1.85;;;;;;;22.58;70.19;100527.47;5010821;28;20127;-70
2023/09/20 10:03:15;;;;;;;3.97;1.90;;;;;;;22.78;70.04;100519.94;5024336;28;20021;-73
2023/09/20 10:05:44;;;;;;;3.15;1.75;;;;;;;22.59;69.76;100506.63;5024026;28;20275;-71
2023/09/20 10:08:13;;;;;;;2.83;1.80;;;;;;;22.29;70.46;100518.88;5023825;28;20025;-71
2023/09/20 10:10:41;;;;;;;2.63;1.50;;;;;;;22.00;71.43;100525.44;5023368;28;20083;-71
2023/09/20 10:13:08;;;;;;;3.63;1.73;;;;;;;21.69;71.89;100506.09;5023511;28;20084;-72
2023/09/20 10:15:35;;;;;;;3.50;1.60;;;;;;;21.49;73.07;100515.44;5023641;28;20039;-70
2023/09/20 10:18:01;;;;;;;2.20;1.50;;;;;;;21.35;74.09;100514.97;5024191;28;20017;-70
2023/09/20 10:20:59;;;;;;;2.38;1.70;;;;;;;21.33;75.24;100513.44;5023359;28;20073;-70
2023/09/20 10:23:27;;;;;;;2.90;1.60;;;;;;;21.55;74.15;100510.22;4992983;28;20030;-72
2023/09/20 10:25:56;;;;;;;3.15;1.90;;;;;;;21.81;74.25;100512.94;5023131;28;20040;-71
2023/09/20 10:28:24;;;;;;;2.67;1.35;;;;;;;21.84;72.89;100514.50;5023612;28;20083;-70
2023/09/20 10:31:04;;;;;;;3.50;1.48;;;;;;;21.89;72.28;100513.00;5012542;28;20202;-69
2023/09/20 10:33:55;;;;;;;2.42;1.30;;;;;;;22.30;72.01;100512.44;5020182;28;20037;-71
2023/09/20 10:36:31;;;;;;;3.20;1.30;;;;;;;22.48;70.40;100509.63;5023066;28;20092;-71
2023/09/20 10:39:20;;;;;;;2.88;1.20;;;;;;;22.77;69.67;100490.22;5001532;28;20029;-72
2023/09/20 10:41:47;;;;;;;3.40;1.27;;;;;;;23.19;66.35;100502.88;5021834;28;20174;-71
2023/09/20 10:44:28;;;;;;;2.17;1.20;;;;;;;23.26;67.03;100491.19;5022892;28;20025;-71
2023/09/20 10:46:58;;;;;;;1.40;1.17;;;;;;;22.62;67.91;100501.72;5012687;28;20034;-71
2023/09/20 10:49:47;;;;;;;4.28;1.38;;;;;;;22.57;69.25;100506.81;5023755;28;20143;-71
2023/09/20 10:52:33;;;;;;;3.60;1.45;;;;;;;22.32;69.78;100492.28;5022788;28;20029;-70
2023/09/20 10:55:22;;;;;;;3.13;1.17;;;;;;;22.25;71.20;100490.38;5022745;28;20056;-69
2023/09/20 10:57:49;;;;;;;2.85;1.15;;;;;;;22.15;70.77;100484.22;5011764;28;20041;-70
2023/09/20 11:00:22;;;;;;;3.88;1.40;;;;;;;22.35;71.17;100480.25;5020046;28;20029;-71
2023/09/20 11:02:52;;;;;;;2.33;1.40;;;;;;;23.08;68.17;100487.78;5009471;28;20468;-70
2023/09/20 11:05:18;;;;;;;2.53;1.20;;;;;;;23.36;66.31;100483.72;5021589;28;20029;-71
2023/09/20 11:07:43;;;;;;;4.05;1.30;;;;;;;23.42;64.48;100460.47;5022936;28;20055;-70
2023/09/20 11:10:19;;;;;;;2.45;1.30;;;;;;;23.24;64.82;100468.81;5022350;28;20245;-71
2023/09/20 11:12:44;;;;;;;3.55;1.35;;;;;;;23.09;65.49;100473.19;5022863;28;20029;-70
2023/09/20 11:15:10;;;;;;;3.03;1.50;;;;;;;22.89;66.01;100469.91;4992701;28;20555;-70
2023/09/20 11:17:36;;;;;;;2.45;1.33;;;;;;;22.81;66.12;100470.72;5021254;28;20172;-70
2023/09/20 11:20:04;;;;;;;4.10;1.30;;;;;;;23.16;66.20;100479.66;5022546;28;20215;-70
2023/09/20 11:22:31;;;;;;;2.95;1.10;;;;;;;23.97;63.09;100472.47;5022668;28;20429;-70
2023/09/20 11:24:57;;;;;;;1.67;1.08;;;;;;;23.96;60.37;100468.06;5004142;28;20045;-71
2023/09/20 11:27:23;;;;;;;2.95;1.30;;;;;;;23.58;62.40;100465.06;5023104;28;20113;-71
2023/09/20 11:29:49;;;;;;;9.27;1.92;;;;;;;23.52;63.82;100455.72;5004884;28;20028;-71
2023/09/20 11:32:16;;;;;;;4.22;1.20;;;;;;;23.50;62.09;100465.06;5022634;28;20263;-70
2023/09/20 11:34:49;;;;;;;2.67;1.15;;;;;;;23.83;62.90;100463.19;5022414;28;20108;-71
2023/09/20 11:37:19;;;;;;;4.25;1.40;;;;;;;23.98;61.42;100458.69;4996152;28;20030;-70
2023/09/20 11:39:49;;;;;;;3.30;1.17;;;;;;;23.65;61.58;100467.91;5018596;28;20030;-70
2023/09/20 11:42:27;;;;;;;2.00;1.20;;;;;;;23.87;61.21;100472.69;5022684;28;20029;-70
2023/09/20 11:44:58;;;;;;;2.53;1.00;;;;;;;23.87;59.82;100461.81;5022752;28;20358;-70
2023/09/20 11:47:24;;;;;;;3.78;1.35;;;;;;;24.35;58.56;100460.78;5023292;28;20064;-71
2023/09/20 11:49:50;;;;;;;4.32;2.30;;;;;;;24.15;58.10;100467.66;5022230;28;20503;-71
2023/09/20 11:52:23;;;;;;;2.22;1.23;;;;;;;23.78;58.61;100455.50;5021479;28;20492;-71
2023/09/20 11:54:48;;;;;;;3.03;1.25;;;;;;;23.55;59.01;100454.53;5022708;28;20463;-70
2023/09/20 11:57:17;;;;;;;1.67;1.17;;;;;;;23.35;60.11;100454.03;5022185;28;20049;-72
2023/09/20 11:59:43;;;;;;;1.85;1.10;;;;;;;23.41;60.06;100460.63;5022319;28;20026;-72
2023/09/20 12:02:09;;;;;;;3.35;1.23;;;;;;;23.54;59.06;100456.41;5021876;28;20550;-71
2023/09/20 12:04:35;;;;;;;3.55;1.58;;;;;;;23.74;58.84;100456.88;5022354;28;20036;-71
2023/09/20 12:07:01;;;;;;;3.17;1.20;;;;;;;23.75;58.14;100450.44;5007226;28;20025;-71